sensor_id;sensor_type;location;lat;lon;timestamp;pressure;altitude;pressure_sealevel;temperature;humidity
34482;BME280;20720;48.886;9.388;2024-03-17T00:00:05;99107.47;;;11.02;100.00
34482;BME280;20720;48.886;9.388;2024-03-17T00:02:31;99112.03;;;10.93;100.00
34482;BME280;20720;48.886;9.388;2024-03-17T00:04:56;99102.31;;;10.79;100.00
34482;BME280;20720;48.886;9.388;2024-03-17T00:07:21;99105.66;;;10.73;100.00
34482;BME280;20720;48.886;9.388;2024-03-17T00:09:47;99098.25;;;10.77;100.00
34482;BME280;20720;48.886;9.388;2024-03-17T00:12:13;99102.75;;;10.54;100.00
34482;BME280;20720;48.886;9.388;2024-03-17T00:14:38;99109.63;;;10.55;100.00
34482;BME280;20720;48.886;9.388;2024-03-17T00:17:04;99106.81;;;10.56;100.00
34482;BME280;20720;48.886;9.388;2024-03-17T00:19:29;99108.47;;;10.86;100.00
34482;BME280;20720;48.886;9.388;2024-03-17T00:21:55;99108.41;;;10.80;100.00
34482;BME280;20720;48.886;9.388;2024-03-17T00:24:20;99111.09;;;10.72;100.00
34482;BME280;20720;48.886;9.388;2024-03-17T00:26:46;99112.22;;;10.92;100.00
34482;BME280;20720;48.886;9.388;2024-03-17T00:29:12;99109.63;;;10.40;100.00
34482;BME280;20720;48.886;9.388;2024-03-17T00:31:37;99091.78;;;9.90;100.00
34482;BME280;20720;48.886;9.388;2024-03-17T00:34:03;99095.13;;;10.29;100.00
34482;BME280;20720;48.886;9.388;2024-03-17T00:36:29;99104.69;;;10.60;100.00
34482;BME280;20720;48.886;9.388;2024-03-17T00:38:55;99106.66;;;10.72;100.00
34482;BME280;20720;48.886;9.388;2024-03-17T00:41:20;99104.56;;;10.68;100.00
34482;BME280;20720;48.886;9.388;2024-03-17T00:43:46;99103.22;;;10.43;100.00
34482;BME280;20720;48.886;9.388;2024-03-17T00:46:11;99089.38;;;10.03;100.00
34482;BME280;20720;48.886;9.388;2024-03-17T00:48:37;99082.78;;;10.30;100.00
34482;BME280;20720;48.886;9.388;2024-03-17T00:51:02;99089.19;;;10.65;100.00
34482;BME280;20720;48.886;9.388;2024-03-17T00:53:28;99090.00;;;10.65;100.00
34482;BME280;20720;48.886;9.388;2024-03-17T00:55:57;99082.63;;;9.86;100.00
34482;BME280;20720;48.886;9.388;2024-03-17T00:58:28;99070.97;;;10.11;100.00
34482;BME280;20720;48.886;9.388;2024-03-17T01:00:53;99085.16;;;10.39;100.00
34482;BME280;20720;48.886;9.388;2024-03-17T01:03:19;99081.00;;;10.30;100.00
34482;BME280;20720;48.886;9.388;2024-03-17T01:05:44;99078.28;;;10.38;100.00
34482;BME280;20720;48.886;9.388;2024-03-17T01:08:12;99089.44;;;10.40;100.00
34482;BME280;20720;48.886;9.388;2024-03-17T01:10:41;99083.34;;;10.25;100.00
34482;BME280;20720;48.886;9.388;2024-03-17T01:13:07;99077.09;;;10.26;100.00
34482;BME280;20720;48.886;9.388;2024-03-17T01:15:34;99078.53;;;10.29;100.00
34482;BME280;20720;48.886;9.388;2024-03-17T01:17:59;99081.06;;;10.22;100.00
34482;BME280;20720;48.886;9.388;2024-03-17T01:20:25;99087.84;;;10.31;100.00
34482;BME280;20720;48.886;9.388;2024-03-17T01:22:50;99083.13;;;10.12;100.00
34482;BME280;20720;48.886;9.388;2024-03-17T01:25:15;99084.25;;;10.32;100.00
34482;BME280;20720;48.886;9.388;2024-03-17T01:27:41;99078.09;;;10.25;100.00
34482;BME280;20720;48.886;9.388;2024-03-17T01:30:06;99076.56;;;10.08;100.00
34482;BME280;20720;48.886;9.388;2024-03-17T01:32:32;99070.38;;;10.01;100.00
34482;BME280;20720;48.886;9.388;2024-03-17T01:34:58;99063.13;;;9.13;100.00
34482;BME280;20720;48.886;9.388;2024-03-17T01:37:23;99060.84;;;9.86;100.00
34482;BME280;20720;48.886;9.388;2024-03-17T01:39:49;99067.84;;;10.16;100.00
34482;BME280;20720;48.886;9.388;2024-03-17T01:42:14;99064.22;;;9.94;100.00
34482;BME280;20720;48.886;9.388;2024-03-17T01:44:40;99054.63;;;10.01;100.00
34482;BME280;20720;48.886;9.388;2024-03-17T01:47:05;99056.06;;;10.12;100.00
34482;BME280;20720;48.886;9.388;2024-03-17T01:49:31;99051.53;;;10.20;100.00
34482;BME280;20720;48.886;9.388;2024-03-17T01:51:56;99053.81;;;10.23;100.00
34482;BME280;20720;48.886;9.388;2024-03-17T01:54:22;99061.00;;;10.29;100.00
34482;BME280;20720;48.886;9.388;2024-03-17T01:56:47;99052.81;;;10.24;100.00
34482;BME280;20720;48.886;9.388;2024-03-17T01:59:13;99047.56;;;10.02;100.00
34482;BME280;20720;48.886;9.388;2024-03-17T02:01:39;99050.66;;;10.05;100.00
34482;BME280;20720;48.886;9.388;2024-03-17T02:04:05;99039.91;;;9.02;100.00
34482;BME280;20720;48.886;9.388;2024-03-17T02:06:31;99016.84;;;9.20;100.00
34482;BME280;20720;48.886;9.388;2024-03-17T02:08:57;99011.78;;;8.88;100.00
34482;BME280;20720;48.886;9.388;2024-03-17T02:11:32;99016.16;;;9.71;100.00
34482;BME280;20720;48.886;9.388;2024-03-17T02:13:59;99027.47;;;10.09;100.00
34482;BME280;20720;48.886;9.388;2024-03-17T02:16:25;99027.34;;;10.10;100.00
34482;BME280;20720;48.886;9.388;2024-03-17T02:18:57;99021.53;;;9.10;100.00
34482;BME280;20720;48.886;9.388;2024-03-17T02:21:24;98997.88;;;8.57;100.00
34482;BME280;20720;48.886;9.388;2024-03-17T02:23:50;99000.03;;;9.37;100.00
34482;BME280;20720;48.886;9.388;2024-03-17T02:26:17;99015.38;;;9.71;100.00
34482;BME280;20720;48.886;9.388;2024-03-17T02:28:43;99011.91;;;9.93;100.00
34482;BME280;20720;48.886;9.388;2024-03-17T02:31:11;99017.09;;;10.01;100.00
34482;BME280;20720;48.886;9.388;2024-03-17T02:33:36;99013.78;;;9.39;100.00
34482;BME280;20720;48.886;9.388;2024-03-17T02:36:06;98999.75;;;8.71;100.00
34482;BME280;20720;48.886;9.388;2024-03-17T02:38:35;98986.63;;;8.79;100.00
34482;BME280;20720;48.886;9.388;2024-03-17T02:41:19;99002.88;;;9.50;100.00
34482;BME280;20720;48.886;9.388;2024-03-17T02:43:45;99013.41;;;9.73;100.00
34482;BME280;20720;48.886;9.388;2024-03-17T02:46:14;99013.03;;;9.53;100.00
34482;BME280;20720;48.886;9.388;2024-03-17T02:48:40;99012.00;;;9.62;100.00
34482;BME280;20720;48.886;9.388;2024-03-17T02:51:16;99003.53;;;9.29;100.00
34482;BME280;20720;48.886;9.388;2024-03-17T02:53:42;99010.13;;;9.71;100.00
34482;BME280;20720;48.886;9.388;2024-03-17T02:56:08;99012.41;;;9.88;100.00
34482;BME280;20720;48.886;9.388;2024-03-17T02:58:37;99011.44;;;9.89;100.00
34482;BME280;20720;48.886;9.388;2024-03-17T03:01:03;99012.97;;;9.84;100.00
34482;BME280;20720;48.886;9.388;2024-03-17T03:03:33;99012.81;;;9.63;100.00
34482;BME280;20720;48.886;9.388;2024-03-17T03:05:58;99006.28;;;8.75;100.00
34482;BME280;20720;48.886;9.388;2024-03-17T03:08:26;98990.63;;;7.96;100.00
34482;BME280;20720;48.886;9.388;2024-03-17T03:10:51;98996.84;;;9.27;100.00
34482;BME280;20720;48.886;9.388;2024-03-17T03:13:17;99001.50;;;9.62;100.00
34482;BME280;20720;48.886;9.388;2024-03-17T03:15:43;99004.91;;;9.48;100.00
34482;BME280;20720;48.886;9.388;2024-03-17T03:18:08;99006.47;;;8.73;100.00
34482;BME280;20720;48.886;9.388;2024-03-17T03:20:34;99001.13;;;9.20;100.00
34482;BME280;20720;48.886;9.388;2024-03-17T03:22:59;99009.31;;;9.70;100.00
34482;BME280;20720;48.886;9.388;2024-03-17T03:25:25;98999.63;;;9.71;100.00
34482;BME280;20720;48.886;9.388;2024-03-17T03:27:50;99007.09;;;9.59;100.00
34482;BME280;20720;48.886;9.388;2024-03-17T03:30:16;99002.59;;;9.45;100.00
34482;BME280;20720;48.886;9.388;2024-03-17T03:32:41;98995.19;;;9.48;100.00
34482;BME280;20720;48.886;9.388;2024-03-17T03:35:07;99002.56;;;9.53;100.00
34482;BME280;20720;48.886;9.388;2024-03-17T03:37:33;99000.91;;;9.52;100.00
34482;BME280;20720;48.886;9.388;2024-03-17T03:39:58;99003.94;;;9.41;100.00
34482;BME280;20720;48.886;9.388;2024-03-17T03:42:24;98992.97;;;9.60;100.00
34482;BME280;20720;48.886;9.388;2024-03-17T03:44:49;98996.41;;;8.93;100.00
34482;BME280;20720;48.886;9.388;2024-03-17T03:47:15;98994.50;;;9.32;100.00
34482;BME280;20720;48.886;9.388;2024-03-17T03:49:40;98994.91;;;8.98;100.00
34482;BME280;20720;48.886;9.388;2024-03-17T03:52:05;98993.22;;;9.28;100.00
34482;BME280;20720;48.886;9.388;2024-03-17T03:54:31;98996.16;;;9.33;100.00
34482;BME280;20720;48.886;9.388;2024-03-17T03:56:56;98992.56;;;9.26;100.00
34482;BME280;20720;48.886;9.388;2024-03-17T03:59:21;98992.47;;;9.42;100.00
34482;BME280;20720;48.886;9.388;2024-03-17T04:01:47;98992.81;;;9.39;100.00
34482;BME280;20720;48.886;9.388;2024-03-17T04:04:14;98996.25;;;9.39;100.00
34482;BME280;20720;48.886;9.388;2024-03-17T04:06:39;99002.31;;;9.40;100.00
34482;BME280;20720;48.886;9.388;2024-03-17T04:09:05;98995.75;;;9.44;100.00
34482;BME280;20720;48.886;9.388;2024-03-17T04:11:32;98998.50;;;9.42;100.00
34482;BME280;20720;48.886;9.388;2024-03-17T04:13:59;98996.50;;;9.30;100.00
34482;BME280;20720;48.886;9.388;2024-03-17T04:16:25;98998.69;;;9.18;100.00
34482;BME280;20720;48.886;9.388;2024-03-17T04:18:51;98996.25;;;9.17;100.00
34482;BME280;20720;48.886;9.388;2024-03-17T04:21:16;98996.44;;;9.38;100.00
34482;BME280;20720;48.886;9.388;2024-03-17T04:23:41;98996.50;;;9.30;100.00
34482;BME280;20720;48.886;9.388;2024-03-17T04:26:07;98994.97;;;9.35;100.00
34482;BME280;20720;48.886;9.388;2024-03-17T04:28:32;98998.41;;;9.36;100.00
34482;BME280;20720;48.886;9.388;2024-03-17T04:31:05;99002.31;;;9.40;100.00
34482;BME280;20720;48.886;9.388;2024-03-17T04:33:31;99005.91;;;9.39;100.00
34482;BME280;20720;48.886;9.388;2024-03-17T04:35:56;98998.81;;;9.02;100.00
34482;BME280;20720;48.886;9.388;2024-03-17T04:38:22;98994.28;;;9.19;100.00
34482;BME280;20720;48.886;9.388;2024-03-17T04:40:47;99008.72;;;9.15;100.00
34482;BME280;20720;48.886;9.388;2024-03-17T04:43:13;99002.13;;;9.19;100.00
34482;BME280;20720;48.886;9.388;2024-03-17T04:45:39;99010.59;;;9.29;100.00
34482;BME280;20720;48.886;9.388;2024-03-17T04:48:05;99003.94;;;9.18;100.00
34482;BME280;20720;48.886;9.388;2024-03-17T04:50:30;99010.09;;;9.25;100.00
34482;BME280;20720;48.886;9.388;2024-03-17T04:52:58;99009.19;;;9.18;100.00
34482;BME280;20720;48.886;9.388;2024-03-17T04:55:23;99002.09;;;9.27;100.00
34482;BME280;20720;48.886;9.388;2024-03-17T04:57:48;99007.66;;;9.24;100.00
34482;BME280;20720;48.886;9.388;2024-03-17T05:00:14;99013.88;;;9.31;100.00
34482;BME280;20720;48.886;9.388;2024-03-17T05:02:40;99008.03;;;9.21;100.00
34482;BME280;20720;48.886;9.388;2024-03-17T05:05:06;99003.81;;;9.12;100.00
34482;BME280;20720;48.886;9.388;2024-03-17T05:07:33;98995.78;;;9.13;100.00
34482;BME280;20720;48.886;9.388;2024-03-17T05:09:58;99000.41;;;9.03;100.00
34482;BME280;20720;48.886;9.388;2024-03-17T05:12:24;99003.22;;;9.02;100.00
34482;BME280;20720;48.886;9.388;2024-03-17T05:14:49;99005.41;;;8.90;100.00
34482;BME280;20720;48.886;9.388;2024-03-17T05:17:14;99006.28;;;8.75;100.00
34482;BME280;20720;48.886;9.388;2024-03-17T05:19:39;98992.06;;;8.30;100.00
34482;BME280;20720;48.886;9.388;2024-03-17T05:22:05;98989.88;;;8.50;100.00
34482;BME280;20720;48.886;9.388;2024-03-17T05:24:30;98996.53;;;8.69;100.00
34482;BME280;20720;48.886;9.388;2024-03-17T05:26:55;99004.13;;;8.86;100.00
34482;BME280;20720;48.886;9.388;2024-03-17T05:29:20;99004.53;;;8.67;100.00
34482;BME280;20720;48.886;9.388;2024-03-17T05:31:47;99001.16;;;8.50;100.00
34482;BME280;20720;48.886;9.388;2024-03-17T05:34:12;99009.66;;;8.61;100.00
34482;BME280;20720;48.886;9.388;2024-03-17T05:36:38;99007.72;;;8.46;100.00
34482;BME280;20720;48.886;9.388;2024-03-17T05:39:03;99010.81;;;8.50;100.00
34482;BME280;20720;48.886;9.388;2024-03-17T05:41:28;99008.06;;;8.43;100.00
34482;BME280;20720;48.886;9.388;2024-03-17T05:43:54;99008.88;;;8.44;100.00
34482;BME280;20720;48.886;9.388;2024-03-17T05:46:23;99006.09;;;8.45;100.00
34482;BME280;20720;48.886;9.388;2024-03-17T05:48:48;99011.13;;;8.55;100.00
34482;BME280;20720;48.886;9.388;2024-03-17T05:51:14;99014.06;;;8.52;100.00
34482;BME280;20720;48.886;9.388;2024-03-17T05:53:41;99016.13;;;8.73;100.00
34482;BME280;20720;48.886;9.388;2024-03-17T05:56:09;99015.19;;;8.66;100.00
34482;BME280;20720;48.886;9.388;2024-03-17T05:58:36;99014.22;;;8.67;100.00
34482;BME280;20720;48.886;9.388;2024-03-17T06:01:03;99010.34;;;8.38;100.00
34482;BME280;20720;48.886;9.388;2024-03-17T06:03:28;99008.88;;;8.44;100.00
34482;BME280;20720;48.886;9.388;2024-03-17T06:05:53;99005.31;;;8.76;100.00
34482;BME280;20720;48.886;9.388;2024-03-17T06:08:19;99010.53;;;8.84;100.00
34482;BME280;20720;48.886;9.388;2024-03-17T06:10:46;99013.03;;;9.08;100.00
34482;BME280;20720;48.886;9.388;2024-03-17T06:13:12;99003.47;;;9.15;100.00
34482;BME280;20720;48.886;9.388;2024-03-17T06:15:39;99015.34;;;9.25;100.00
34482;BME280;20720;48.886;9.388;2024-03-17T06:18:05;99010.69;;;9.13;100.00
34482;BME280;20720;48.886;9.388;2024-03-17T06:20:33;99006.50;;;9.26;100.00
34482;BME280;20720;48.886;9.388;2024-03-17T06:22:59;98998.81;;;9.25;100.00
34482;BME280;20720;48.886;9.388;2024-03-17T06:25:24;98996.72;;;9.43;100.00
34482;BME280;20720;48.886;9.388;2024-03-17T06:27:50;98995.78;;;9.36;100.00
34482;BME280;20720;48.886;9.388;2024-03-17T06:30:16;98990.66;;;9.42;100.00
34482;BME280;20720;48.886;9.388;2024-03-17T06:32:42;98995.38;;;9.47;100.00
34482;BME280;20720;48.886;9.388;2024-03-17T06:35:10;98990.50;;;9.44;100.00
34482;BME280;20720;48.886;9.388;2024-03-17T06:37:36;98984.78;;;9.63;100.00
34482;BME280;20720;48.886;9.388;2024-03-17T06:40:02;98977.03;;;9.47;100.00
34482;BME280;20720;48.886;9.388;2024-03-17T06:42:29;98986.66;;;9.69;100.00
34482;BME280;20720;48.886;9.388;2024-03-17T06:44:54;98982.72;;;9.73;100.00
34482;BME280;20720;48.886;9.388;2024-03-17T06:47:19;98983.09;;;9.99;100.00
34482;BME280;20720;48.886;9.388;2024-03-17T06:49:45;98980.63;;;10.20;100.00
34482;BME280;20720;48.886;9.388;2024-03-17T06:52:10;98988.34;;;10.36;100.00
34482;BME280;20720;48.886;9.388;2024-03-17T06:54:36;98985.50;;;9.72;100.00
34482;BME280;20720;48.886;9.388;2024-03-17T06:57:01;98995.34;;;10.29;100.00
34482;BME280;20720;48.886;9.388;2024-03-17T06:59:26;98983.69;;;10.68;100.00
34482;BME280;20720;48.886;9.388;2024-03-17T07:01:51;98983.75;;;10.89;100.00
34482;BME280;20720;48.886;9.388;2024-03-17T07:04:17;98987.00;;;10.91;100.00
34482;BME280;20720;48.886;9.388;2024-03-17T07:06:42;98979.78;;;11.14;100.00
34482;BME280;20720;48.886;9.388;2024-03-17T07:09:07;98977.66;;;11.45;100.00
34482;BME280;20720;48.886;9.388;2024-03-17T07:11:34;98973.66;;;11.07;100.00
34482;BME280;20720;48.886;9.388;2024-03-17T07:13:59;98980.25;;;11.60;100.00
34482;BME280;20720;48.886;9.388;2024-03-17T07:16:24;98979.75;;;11.98;100.00
34482;BME280;20720;48.886;9.388;2024-03-17T07:18:52;98976.59;;;12.09;100.00
34482;BME280;20720;48.886;9.388;2024-03-17T07:21:18;98981.97;;;11.67;100.00
34482;BME280;20720;48.886;9.388;2024-03-17T07:23:44;98977.28;;;11.90;100.00
34482;BME280;20720;48.886;9.388;2024-03-17T07:26:09;98978.88;;;12.53;100.00
34482;BME280;20720;48.886;9.388;2024-03-17T07:28:35;98988.91;;;13.18;100.00
34482;BME280;20720;48.886;9.388;2024-03-17T07:31:00;98981.47;;;13.80;100.00
34482;BME280;20720;48.886;9.388;2024-03-17T07:33:26;98988.91;;;13.18;100.00
34482;BME280;20720;48.886;9.388;2024-03-17T07:35:53;98977.34;;;12.31;100.00
34482;BME280;20720;48.886;9.388;2024-03-17T07:38:20;98980.44;;;12.07;100.00
34482;BME280;20720;48.886;9.388;2024-03-17T07:40:58;98973.50;;;14.19;100.00
34482;BME280;20720;48.886;9.388;2024-03-17T07:43:24;98972.06;;;15.00;100.00
34482;BME280;20720;48.886;9.388;2024-03-17T07:46:16;98977.06;;;15.59;100.00
34482;BME280;20720;48.886;9.388;2024-03-17T07:48:43;98978.28;;;15.81;100.00
34482;BME280;20720;48.886;9.388;2024-03-17T07:51:10;98980.00;;;16.19;100.00
34482;BME280;20720;48.886;9.388;2024-03-17T07:53:37;98980.59;;;15.71;97.15
34482;BME280;20720;48.886;9.388;2024-03-17T07:56:06;98985.03;;;15.15;100.00
34482;BME280;20720;48.886;9.388;2024-03-17T07:58:32;98985.56;;;13.70;100.00
34482;BME280;20720;48.886;9.388;2024-03-17T08:01:03;98983.19;;;14.65;100.00
34482;BME280;20720;48.886;9.388;2024-03-17T08:03:29;98988.66;;;15.58;100.00
34482;BME280;20720;48.886;9.388;2024-03-17T08:05:55;98990.84;;;14.92;100.00
34482;BME280;20720;48.886;9.388;2024-03-17T08:08:20;98990.75;;;16.48;95.98
34482;BME280;20720;48.886;9.388;2024-03-17T08:10:46;98990.47;;;16.74;89.57
34482;BME280;20720;48.886;9.388;2024-03-17T08:13:16;98998.63;;;14.81;100.00
34482;BME280;20720;48.886;9.388;2024-03-17T08:15:42;98984.91;;;14.40;100.00
34482;BME280;20720;48.886;9.388;2024-03-17T08:18:14;98976.84;;;15.54;99.85
34482;BME280;20720;48.886;9.388;2024-03-17T08:20:41;98975.44;;;16.98;93.03
34482;BME280;20720;48.886;9.388;2024-03-17T08:23:08;98970.06;;;16.32;99.92
34482;BME280;20720;48.886;9.388;2024-03-17T08:25:33;98976.09;;;18.06;86.20
34482;BME280;20720;48.886;9.388;2024-03-17T08:28:00;98973.75;;;17.04;89.54
34482;BME280;20720;48.886;9.388;2024-03-17T08:30:25;98971.38;;;17.14;85.10
34482;BME280;20720;48.886;9.388;2024-03-17T08:32:50;98979.41;;;16.17;100.00
34482;BME280;20720;48.886;9.388;2024-03-17T08:35:16;98978.63;;;15.67;100.00
34482;BME280;20720;48.886;9.388;2024-03-17T08:37:41;98976.72;;;17.25;89.98
34482;BME280;20720;48.886;9.388;2024-03-17T08:40:07;98980.38;;;17.13;86.39
34482;BME280;20720;48.886;9.388;2024-03-17T08:42:32;98978.31;;;17.44;86.68
34482;BME280;20720;48.886;9.388;2024-03-17T08:44:58;98982.59;;;18.10;83.16
34482;BME280;20720;48.886;9.388;2024-03-17T08:47:23;98982.69;;;16.91;85.98
34482;BME280;20720;48.886;9.388;2024-03-17T08:49:51;98973.72;;;17.51;84.50
34482;BME280;20720;48.886;9.388;2024-03-17T08:52:17;98978.63;;;17.77;81.49
34482;BME280;20720;48.886;9.388;2024-03-17T08:54:46;98980.06;;;18.03;80.62
34482;BME280;20720;48.886;9.388;2024-03-17T08:57:12;98978.31;;;18.43;80.09
34482;BME280;20720;48.886;9.388;2024-03-17T08:59:37;98980.47;;;18.81;79.11
34482;BME280;20720;48.886;9.388;2024-03-17T09:02:03;98992.84;;;18.75;77.59
34482;BME280;20720;48.886;9.388;2024-03-17T09:04:28;98988.97;;;18.32;77.15
34482;BME280;20720;48.886;9.388;2024-03-17T09:06:54;98980.38;;;18.53;77.68
34482;BME280;20720;48.886;9.388;2024-03-17T09:09:21;98971.94;;;19.07;78.69
34482;BME280;20720;48.886;9.388;2024-03-17T09:11:46;98973.69;;;18.16;82.50
34482;BME280;20720;48.886;9.388;2024-03-17T09:14:12;98981.88;;;18.60;78.39
34482;BME280;20720;48.886;9.388;2024-03-17T09:16:37;98983.22;;;18.86;74.68
34482;BME280;20720;48.886;9.388;2024-03-17T09:19:02;98977.81;;;17.88;80.92
34482;BME280;20720;48.886;9.388;2024-03-17T09:21:28;98971.28;;;19.28;78.14
34482;BME280;20720;48.886;9.388;2024-03-17T09:23:53;98964.22;;;19.50;77.11
34482;BME280;20720;48.886;9.388;2024-03-17T09:26:18;98958.25;;;17.71;87.23
34482;BME280;20720;48.886;9.388;2024-03-17T09:28:43;98958.75;;;19.90;78.86
34482;BME280;20720;48.886;9.388;2024-03-17T09:31:10;98955.28;;;20.23;76.25
34482;BME280;20720;48.886;9.388;2024-03-17T09:33:36;98953.09;;;19.87;76.77
34482;BME280;20720;48.886;9.388;2024-03-17T09:36:07;98954.94;;;19.53;77.37
34482;BME280;20720;48.886;9.388;2024-03-17T09:38:34;98958.41;;;20.20;75.40
34482;BME280;20720;48.886;9.388;2024-03-17T09:40:59;98952.28;;;20.79;72.88
34482;BME280;20720;48.886;9.388;2024-03-17T09:43:28;98945.91;;;21.28;68.51
34482;BME280;20720;48.886;9.388;2024-03-17T09:45:54;98945.22;;;21.16;71.90
34482;BME280;20720;48.886;9.388;2024-03-17T09:48:24;98951.38;;;19.97;75.25
34482;BME280;20720;48.886;9.388;2024-03-17T09:50:57;98948.94;;;17.80;74.89
34482;BME280;20720;48.886;9.388;2024-03-17T09:53:28;98957.63;;;17.05;81.10
34482;BME280;20720;48.886;9.388;2024-03-17T09:55:58;98951.59;;;16.44;93.20
34482;BME280;20720;48.886;9.388;2024-03-17T09:58:24;98959.03;;;14.99;95.19
34482;BME280;20720;48.886;9.388;2024-03-17T10:00:49;98956.16;;;16.37;88.80
34482;BME280;20720;48.886;9.388;2024-03-17T10:06:22;98964.88;;;20.24;70.29
34482;BME280;20720;48.886;9.388;2024-03-17T10:08:49;98958.56;;;19.97;70.08
34482;BME280;20720;48.886;9.388;2024-03-17T10:11:20;98964.94;;;20.67;65.53
34482;BME280;20720;48.886;9.388;2024-03-17T10:13:47;98970.41;;;20.77;65.19
34482;BME280;20720;48.886;9.388;2024-03-17T10:16:27;98968.44;;;20.89;63.73
34482;BME280;20720;48.886;9.388;2024-03-17T10:19:10;98954.81;;;19.93;66.13
34482;BME280;20720;48.886;9.388;2024-03-17T10:21:38;98952.75;;;18.94;66.84
34482;BME280;20720;48.886;9.388;2024-03-17T10:24:25;98952.59;;;19.56;66.67
34482;BME280;20720;48.886;9.388;2024-03-17T10:26:52;98947.81;;;19.14;69.97
34482;BME280;20720;48.886;9.388;2024-03-17T10:29:28;98945.38;;;21.31;61.52
34482;BME280;20720;48.886;9.388;2024-03-17T10:31:57;98941.88;;;20.39;60.19
34482;BME280;20720;48.886;9.388;2024-03-17T10:34:23;98950.53;;;20.68;58.59
34482;BME280;20720;48.886;9.388;2024-03-17T10:37:16;98949.38;;;16.77;72.64
34482;BME280;20720;48.886;9.388;2024-03-17T10:39:50;98951.56;;;17.57;73.09
34482;BME280;20720;48.886;9.388;2024-03-17T10:42:23;98946.72;;;19.26;69.04
34482;BME280;20720;48.886;9.388;2024-03-17T10:44:49;98954.47;;;19.28;65.35
34482;BME280;20720;48.886;9.388;2024-03-17T10:47:27;98951.41;;;16.63;73.60
34482;BME280;20720;48.886;9.388;2024-03-17T10:49:54;98949.16;;;18.02;75.30
34482;BME280;20720;48.886;9.388;2024-03-17T10:52:21;98952.66;;;19.17;67.03
34482;BME280;20720;48.886;9.388;2024-03-17T10:54:48;98954.00;;;17.29;77.17
34482;BME280;20720;48.886;9.388;2024-03-17T10:59:52;98946.03;;;20.95;63.78
34482;BME280;20720;48.886;9.388;2024-03-17T11:02:20;98941.03;;;21.52;62.02
34482;BME280;20720;48.886;9.388;2024-03-17T11:04:50;98950.81;;;21.68;61.13
34482;BME280;20720;48.886;9.388;2024-03-17T11:07:17;98949.72;;;18.62;68.19
34482;BME280;20720;48.886;9.388;2024-03-17T11:09:45;98957.03;;;18.32;72.86
34482;BME280;20720;48.886;9.388;2024-03-17T11:17:53;98955.91;;;19.19;65.58
34482;BME280;20720;48.886;9.388;2024-03-17T11:20:24;98954.97;;;18.85;68.03
34482;BME280;20720;48.886;9.388;2024-03-17T11:22:54;98945.47;;;18.89;71.28
34482;BME280;20720;48.886;9.388;2024-03-17T11:27:50;98934.78;;;23.28;56.55
34482;BME280;20720;48.886;9.388;2024-03-17T11:39:01;98941.09;;;17.44;69.70
34482;BME280;20720;48.886;9.388;2024-03-17T11:41:42;98930.25;;;20.12;63.64
34482;BME280;20720;48.886;9.388;2024-03-17T11:44:14;98933.13;;;20.87;60.59
34482;BME280;20720;48.886;9.388;2024-03-17T11:46:40;98926.34;;;22.23;55.38
34482;BME280;20720;48.886;9.388;2024-03-17T11:49:20;98906.94;;;23.75;54.42
34482;BME280;20720;48.886;9.388;2024-03-17T11:51:46;98905.06;;;23.60;52.69
34482;BME280;20720;48.886;9.388;2024-03-17T11:54:14;98899.81;;;24.49;50.68
34482;BME280;20720;48.886;9.388;2024-03-17T11:56:43;98894.72;;;22.20;52.67
34482;BME280;20720;48.886;9.388;2024-03-17T11:59:10;98893.16;;;20.49;58.45
34482;BME280;20720;48.886;9.388;2024-03-17T12:01:36;98883.97;;;22.10;54.46
34482;BME280;20720;48.886;9.388;2024-03-17T12:04:04;98877.69;;;24.77;50.82
34482;BME280;20720;48.886;9.388;2024-03-17T12:06:31;98887.97;;;25.48;47.79
34482;BME280;20720;48.886;9.388;2024-03-17T12:09:29;98883.22;;;25.35;46.91
34482;BME280;20720;48.886;9.388;2024-03-17T12:12:06;98876.84;;;24.08;48.48
34482;BME280;20720;48.886;9.388;2024-03-17T12:14:33;98875.28;;;23.52;48.74
34482;BME280;20720;48.886;9.388;2024-03-17T12:17:12;98876.81;;;24.28;47.75
34482;BME280;20720;48.886;9.388;2024-03-17T12:19:39;98865.50;;;22.08;47.25
34482;BME280;20720;48.886;9.388;2024-03-17T12:22:05;98867.34;;;22.60;48.68
34482;BME280;20720;48.886;9.388;2024-03-17T12:24:35;98868.16;;;25.39;44.67
34482;BME280;20720;48.886;9.388;2024-03-17T12:27:04;98868.31;;;23.41;47.36
34482;BME280;20720;48.886;9.388;2024-03-17T12:32:02;98862.63;;;23.07;49.59
34482;BME280;20720;48.886;9.388;2024-03-17T12:34:30;98872.81;;;21.81;51.04
34482;BME280;20720;48.886;9.388;2024-03-17T12:36:56;98862.63;;;21.46;50.54
34482;BME280;20720;48.886;9.388;2024-03-17T12:39:27;98863.88;;;19.78;55.17
34482;BME280;20720;48.886;9.388;2024-03-17T12:42:15;98847.72;;;18.45;59.95
34482;BME280;20720;48.886;9.388;2024-03-17T12:44:52;98847.78;;;20.11;57.02
34482;BME280;20720;48.886;9.388;2024-03-17T12:47:23;98856.44;;;20.61;54.20
34482;BME280;20720;48.886;9.388;2024-03-17T12:49:53;98861.63;;;21.58;53.92
34482;BME280;20720;48.886;9.388;2024-03-17T12:57:50;98846.53;;;18.97;56.50
34482;BME280;20720;48.886;9.388;2024-03-17T13:00:34;98842.72;;;19.54;58.60
34482;BME280;20720;48.886;9.388;2024-03-17T13:03:01;98824.94;;;20.63;54.56
34482;BME280;20720;48.886;9.388;2024-03-17T13:05:27;98832.47;;;20.44;56.18
34482;BME280;20720;48.886;9.388;2024-03-17T13:07:53;98835.16;;;20.93;56.04
34482;BME280;20720;48.886;9.388;2024-03-17T13:10:20;98832.91;;;20.36;53.99
34482;BME280;20720;48.886;9.388;2024-03-17T13:12:46;98832.59;;;20.54;56.08
34482;BME280;20720;48.886;9.388;2024-03-17T13:15:13;98837.28;;;20.21;56.42
34482;BME280;20720;48.886;9.388;2024-03-17T13:17:39;98831.66;;;20.92;55.60
34482;BME280;20720;48.886;9.388;2024-03-17T13:20:07;98833.31;;;20.72;55.62
34482;BME280;20720;48.886;9.388;2024-03-17T13:22:36;98835.81;;;20.13;56.02
34482;BME280;20720;48.886;9.388;2024-03-17T13:25:04;98829.72;;;20.34;55.95
34482;BME280;20720;48.886;9.388;2024-03-17T13:27:29;98830.50;;;20.83;55.36